sensor_id;sensor_type;location;lat;lon;timestamp;P1;durP1;ratioP1;P2;durP2;ratioP2
47764;SDS011;33529;49.242;8.670;2023-02-28T00:00:36;4.45;;;2.58;;
47764;SDS011;33529;49.242;8.670;2023-02-28T00:03:05;3.05;;;2.28;;
47764;SDS011;33529;49.242;8.670;2023-02-28T00:05:32;3.20;;;2.17;;
47764;SDS011;33529;49.242;8.670;2023-02-28T00:08:00;5.05;;;2.40;;
47764;SDS011;33529;49.242;8.670;2023-02-28T00:10:27;6.00;;;2.60;;
47764;SDS011;33529;49.242;8.670;2023-02-28T00:12:58;4.88;;;2.55;;
47764;SDS011;33529;49.242;8.670;2023-02-28T00:15:26;4.10;;;2.33;;
47764;SDS011;33529;49.242;8.670;2023-02-28T00:17:53;3.85;;;1.95;;
47764;SDS011;33529;49.242;8.670;2023-02-28T00:20:20;3.65;;;2.13;;
47764;SDS011;33529;49.242;8.670;2023-02-28T00:22:48;5.45;;;1.98;;
47764;SDS011;33529;49.242;8.670;2023-02-28T00:25:18;3.00;;;2.00;;
47764;SDS011;33529;49.242;8.670;2023-02-28T00:27:47;3.53;;;1.92;;
47764;SDS011;33529;49.242;8.670;2023-02-28T00:30:18;3.40;;;2.20;;
47764;SDS011;33529;49.242;8.670;2023-02-28T00:32:47;3.13;;;2.03;;
47764;SDS011;33529;49.242;8.670;2023-02-28T00:35:15;3.95;;;2.33;;
47764;SDS011;33529;49.242;8.670;2023-02-28T00:37:42;3.03;;;1.80;;
47764;SDS011;33529;49.242;8.670;2023-02-28T00:40:09;3.17;;;2.03;;
47764;SDS011;33529;49.242;8.670;2023-02-28T00:42:38;2.67;;;1.90;;
47764;SDS011;33529;49.242;8.670;2023-02-28T00:45:06;3.63;;;2.00;;
47764;SDS011;33529;49.242;8.670;2023-02-28T00:47:36;3.88;;;2.22;;
47764;SDS011;33529;49.242;8.670;2023-02-28T00:50:04;3.97;;;2.20;;
47764;SDS011;33529;49.242;8.670;2023-02-28T00:52:31;5.05;;;2.60;;
47764;SDS011;33529;49.242;8.670;2023-02-28T00:54:58;4.70;;;2.53;;
47764;SDS011;33529;49.242;8.670;2023-02-28T00:57:26;3.03;;;1.95;;
47764;SDS011;33529;49.242;8.670;2023-02-28T00:59:52;4.03;;;1.98;;
47764;SDS011;33529;49.242;8.670;2023-02-28T01:02:21;2.78;;;1.70;;
47764;SDS011;33529;49.242;8.670;2023-02-28T01:04:48;2.70;;;1.63;;
47764;SDS011;33529;49.242;8.670;2023-02-28T01:07:15;3.97;;;2.67;;
47764;SDS011;33529;49.242;8.670;2023-02-28T01:09:42;4.55;;;2.10;;
47764;SDS011;33529;49.242;8.670;2023-02-28T01:12:09;6.53;;;2.17;;
47764;SDS011;33529;49.242;8.670;2023-02-28T01:14:36;3.35;;;1.95;;
47764;SDS011;33529;49.242;8.670;2023-02-28T01:17:04;5.28;;;2.83;;
47764;SDS011;33529;49.242;8.670;2023-02-28T01:19:30;7.68;;;2.75;;
47764;SDS011;33529;49.242;8.670;2023-02-28T01:22:00;4.60;;;2.78;;
47764;SDS011;33529;49.242;8.670;2023-02-28T01:24:28;4.73;;;2.60;;
47764;SDS011;33529;49.242;8.670;2023-02-28T01:26:55;3.95;;;2.20;;
47764;SDS011;33529;49.242;8.670;2023-02-28T01:29:22;4.18;;;2.25;;
47764;SDS011;33529;49.242;8.670;2023-02-28T01:31:51;4.72;;;2.50;;
47764;SDS011;33529;49.242;8.670;2023-02-28T01:34:19;4.40;;;2.22;;
47764;SDS011;33529;49.242;8.670;2023-02-28T01:36:46;3.97;;;2.42;;
47764;SDS011;33529;49.242;8.670;2023-02-28T01:39:13;4.47;;;2.20;;
47764;SDS011;33529;49.242;8.670;2023-02-28T01:41:40;3.70;;;2.30;;
47764;SDS011;33529;49.242;8.670;2023-02-28T01:44:53;4.50;;;2.20;;
47764;SDS011;33529;49.242;8.670;2023-02-28T01:47:12;5.00;;;2.88;;
47764;SDS011;33529;49.242;8.670;2023-02-28T01:49:39;3.55;;;2.33;;
47764;SDS011;33529;49.242;8.670;2023-02-28T01:52:07;3.90;;;2.53;;
47764;SDS011;33529;49.242;8.670;2023-02-28T01:54:35;3.72;;;2.53;;
47764;SDS011;33529;49.242;8.670;2023-02-28T01:57:13;4.88;;;2.42;;
47764;SDS011;33529;49.242;8.670;2023-02-28T01:59:43;4.03;;;2.40;;
47764;SDS011;33529;49.242;8.670;2023-02-28T02:02:16;3.95;;;2.28;;
47764;SDS011;33529;49.242;8.670;2023-02-28T02:04:48;5.22;;;2.45;;
47764;SDS011;33529;49.242;8.670;2023-02-28T02:07:37;3.78;;;2.58;;
47764;SDS011;33529;49.242;8.670;2023-02-28T02:18:07;4.03;;;2.33;;
47764;SDS011;33529;49.242;8.670;2023-02-28T02:20:54;4.05;;;2.65;;
47764;SDS011;33529;49.242;8.670;2023-02-28T02:37:29;4.85;;;2.72;;
47764;SDS011;33529;49.242;8.670;2023-02-28T02:42:36;3.30;;;2.03;;
47764;SDS011;33529;49.242;8.670;2023-02-28T02:45:10;5.32;;;2.97;;
47764;SDS011;33529;49.242;8.670;2023-02-28T02:47:41;4.85;;;2.78;;
47764;SDS011;33529;49.242;8.670;2023-02-28T02:50:14;4.95;;;2.45;;
47764;SDS011;33529;49.242;8.670;2023-02-28T02:52:49;5.85;;;2.65;;
47764;SDS011;33529;49.242;8.670;2023-02-28T02:55:21;5.18;;;2.80;;
47764;SDS011;33529;49.242;8.670;2023-02-28T02:57:51;3.67;;;2.47;;
47764;SDS011;33529;49.242;8.670;2023-02-28T03:00:26;4.28;;;2.88;;
47764;SDS011;33529;49.242;8.670;2023-02-28T03:02:57;3.60;;;2.28;;
47764;SDS011;33529;49.242;8.670;2023-02-28T03:05:26;3.33;;;2.70;;
47764;SDS011;33529;49.242;8.670;2023-02-28T03:10:31;3.92;;;2.17;;
47764;SDS011;33529;49.242;8.670;2023-02-28T03:13:04;5.95;;;2.78;;
47764;SDS011;33529;49.242;8.670;2023-02-28T03:15:44;4.68;;;2.30;;
47764;SDS011;33529;49.242;8.670;2023-02-28T03:19:02;4.60;;;2.78;;
47764;SDS011;33529;49.242;8.670;2023-02-28T03:21:38;4.40;;;2.83;;
47764;SDS011;33529;49.242;8.670;2023-02-28T03:24:19;4.70;;;3.03;;
47764;SDS011;33529;49.242;8.670;2023-02-28T03:27:48;4.57;;;2.80;;
47764;SDS011;33529;49.242;8.670;2023-02-28T03:30:33;4.57;;;2.72;;
47764;SDS011;33529;49.242;8.670;2023-02-28T03:35:22;6.55;;;3.40;;
47764;SDS011;33529;49.242;8.670;2023-02-28T03:37:53;4.97;;;2.70;;
47764;SDS011;33529;49.242;8.670;2023-02-28T03:40:27;4.78;;;2.80;;
47764;SDS011;33529;49.242;8.670;2023-02-28T03:42:59;4.95;;;2.92;;
47764;SDS011;33529;49.242;8.670;2023-02-28T03:45:32;5.57;;;3.13;;
47764;SDS011;33529;49.242;8.670;2023-02-28T03:50:37;5.85;;;3.60;;
47764;SDS011;33529;49.242;8.670;2023-02-28T03:53:20;5.20;;;2.60;;
47764;SDS011;33529;49.242;8.670;2023-02-28T03:56:03;8.10;;;3.85;;
47764;SDS011;33529;49.242;8.670;2023-02-28T03:58:47;6.68;;;3.38;;
47764;SDS011;33529;49.242;8.670;2023-02-28T04:01:30;5.45;;;3.17;;
47764;SDS011;33529;49.242;8.670;2023-02-28T04:04:01;6.47;;;3.45;;
47764;SDS011;33529;49.242;8.670;2023-02-28T04:06:30;4.65;;;2.80;;
47764;SDS011;33529;49.242;8.670;2023-02-28T04:08:58;4.72;;;2.85;;
47764;SDS011;33529;49.242;8.670;2023-02-28T04:14:05;4.85;;;3.30;;
47764;SDS011;33529;49.242;8.670;2023-02-28T04:16:35;5.07;;;3.05;;
47764;SDS011;33529;49.242;8.670;2023-02-28T04:19:04;5.22;;;3.60;;
47764;SDS011;33529;49.242;8.670;2023-02-28T04:21:37;7.00;;;3.85;;
47764;SDS011;33529;49.242;8.670;2023-02-28T04:24:06;6.43;;;3.67;;
47764;SDS011;33529;49.242;8.670;2023-02-28T04:26:35;5.40;;;2.80;;
47764;SDS011;33529;49.242;8.670;2023-02-28T04:29:03;5.22;;;3.67;;
47764;SDS011;33529;49.242;8.670;2023-02-28T04:31:31;4.95;;;2.58;;
47764;SDS011;33529;49.242;8.670;2023-02-28T04:33:58;5.45;;;2.90;;
47764;SDS011;33529;49.242;8.670;2023-02-28T04:36:26;4.78;;;3.13;;
47764;SDS011;33529;49.242;8.670;2023-02-28T04:38:52;8.80;;;4.00;;
47764;SDS011;33529;49.242;8.670;2023-02-28T04:41:20;6.97;;;3.47;;
47764;SDS011;33529;49.242;8.670;2023-02-28T04:43:47;6.43;;;3.28;;
47764;SDS011;33529;49.242;8.670;2023-02-28T04:46:14;5.95;;;3.80;;
47764;SDS011;33529;49.242;8.670;2023-02-28T04:48:41;6.90;;;3.50;;
47764;SDS011;33529;49.242;8.670;2023-02-28T04:51:10;5.57;;;3.88;;
47764;SDS011;33529;49.242;8.670;2023-02-28T04:53:40;4.80;;;2.90;;
47764;SDS011;33529;49.242;8.670;2023-02-28T04:56:10;5.30;;;3.45;;
47764;SDS011;33529;49.242;8.670;2023-02-28T04:58:39;6.60;;;3.33;;
47764;SDS011;33529;49.242;8.670;2023-02-28T05:01:07;5.95;;;2.97;;
47764;SDS011;33529;49.242;8.670;2023-02-28T05:03:49;4.53;;;3.10;;
47764;SDS011;33529;49.242;8.670;2023-02-28T05:06:17;5.75;;;3.65;;
47764;SDS011;33529;49.242;8.670;2023-02-28T05:08:44;6.97;;;3.45;;
47764;SDS011;33529;49.242;8.670;2023-02-28T05:11:31;5.47;;;3.33;;
47764;SDS011;33529;49.242;8.670;2023-02-28T05:14:05;5.70;;;3.15;;
47764;SDS011;33529;49.242;8.670;2023-02-28T05:16:33;6.97;;;3.80;;
47764;SDS011;33529;49.242;8.670;2023-02-28T05:19:00;4.50;;;3.03;;
47764;SDS011;33529;49.242;8.670;2023-02-28T05:24:09;8.57;;;4.03;;
47764;SDS011;33529;49.242;8.670;2023-02-28T05:26:38;6.03;;;3.28;;
47764;SDS011;33529;49.242;8.670;2023-02-28T05:29:07;6.45;;;3.60;;
47764;SDS011;33529;49.242;8.670;2023-02-28T05:31:35;6.57;;;3.70;;
47764;SDS011;33529;49.242;8.670;2023-02-28T05:34:02;6.47;;;3.70;;
47764;SDS011;33529;49.242;8.670;2023-02-28T05:36:30;5.18;;;3.45;;
47764;SDS011;33529;49.242;8.670;2023-02-28T05:38:57;5.32;;;3.30;;
47764;SDS011;33529;49.242;8.670;2023-02-28T05:41:25;7.20;;;3.88;;
47764;SDS011;33529;49.242;8.670;2023-02-28T05:43:53;5.05;;;3.08;;
47764;SDS011;33529;49.242;8.670;2023-02-28T05:46:19;5.13;;;2.97;;
47764;SDS011;33529;49.242;8.670;2023-02-28T05:48:47;5.90;;;3.83;;
47764;SDS011;33529;49.242;8.670;2023-02-28T05:51:14;5.07;;;3.38;;
47764;SDS011;33529;49.242;8.670;2023-02-28T05:53:41;7.70;;;3.58;;
47764;SDS011;33529;49.242;8.670;2023-02-28T05:56:08;7.03;;;4.03;;
47764;SDS011;33529;49.242;8.670;2023-02-28T05:58:36;5.82;;;3.53;;
47764;SDS011;33529;49.242;8.670;2023-02-28T06:01:22;5.03;;;3.13;;
47764;SDS011;33529;49.242;8.670;2023-02-28T06:03:51;5.32;;;3.05;;
47764;SDS011;33529;49.242;8.670;2023-02-28T06:06:17;5.85;;;3.75;;
47764;SDS011;33529;49.242;8.670;2023-02-28T06:08:44;6.40;;;3.78;;
47764;SDS011;33529;49.242;8.670;2023-02-28T06:11:12;6.03;;;3.17;;
47764;SDS011;33529;49.242;8.670;2023-02-28T06:13:38;5.03;;;3.22;;
47764;SDS011;33529;49.242;8.670;2023-02-28T06:16:05;5.57;;;3.63;;
47764;SDS011;33529;49.242;8.670;2023-02-28T06:18:33;7.97;;;4.15;;
47764;SDS011;33529;49.242;8.670;2023-02-28T06:20:59;5.50;;;3.75;;
47764;SDS011;33529;49.242;8.670;2023-02-28T06:23:26;7.22;;;3.95;;
47764;SDS011;33529;49.242;8.670;2023-02-28T06:25:53;6.68;;;3.70;;
47764;SDS011;33529;49.242;8.670;2023-02-28T06:28:25;6.22;;;3.75;;
47764;SDS011;33529;49.242;8.670;2023-02-28T06:30:51;8.27;;;4.07;;
47764;SDS011;33529;49.242;8.670;2023-02-28T06:33:18;6.05;;;3.50;;
47764;SDS011;33529;49.242;8.670;2023-02-28T06:35:52;7.18;;;4.22;;
47764;SDS011;33529;49.242;8.670;2023-02-28T06:38:18;6.03;;;3.78;;
47764;SDS011;33529;49.242;8.670;2023-02-28T06:40:52;6.25;;;3.65;;
47764;SDS011;33529;49.242;8.670;2023-02-28T06:43:20;6.10;;;3.67;;
47764;SDS011;33529;49.242;8.670;2023-02-28T06:45:47;7.03;;;4.45;;
47764;SDS011;33529;49.242;8.670;2023-02-28T06:48:14;6.05;;;3.85;;
47764;SDS011;33529;49.242;8.670;2023-02-28T06:50:41;6.60;;;3.95;;
47764;SDS011;33529;49.242;8.670;2023-02-28T06:53:07;7.90;;;4.60;;
47764;SDS011;33529;49.242;8.670;2023-02-28T06:55:34;7.60;;;5.25;;
47764;SDS011;33529;49.242;8.670;2023-02-28T06:58:03;6.93;;;4.00;;
47764;SDS011;33529;49.242;8.670;2023-02-28T07:00:41;6.82;;;4.03;;
47764;SDS011;33529;49.242;8.670;2023-02-28T07:03:08;6.60;;;4.40;;
47764;SDS011;33529;49.242;8.670;2023-02-28T07:05:36;6.93;;;4.07;;
47764;SDS011;33529;49.242;8.670;2023-02-28T07:08:03;7.43;;;5.25;;
47764;SDS011;33529;49.242;8.670;2023-02-28T07:10:32;7.80;;;4.20;;
47764;SDS011;33529;49.242;8.670;2023-02-28T07:12:59;7.80;;;4.75;;
47764;SDS011;33529;49.242;8.670;2023-02-28T07:15:26;6.22;;;3.92;;
47764;SDS011;33529;49.242;8.670;2023-02-28T07:17:53;7.55;;;4.05;;
47764;SDS011;33529;49.242;8.670;2023-02-28T07:20:21;7.03;;;3.65;;
47764;SDS011;33529;49.242;8.670;2023-02-28T07:22:48;6.38;;;4.40;;
47764;SDS011;33529;49.242;8.670;2023-02-28T07:25:24;5.80;;;3.83;;
47764;SDS011;33529;49.242;8.670;2023-02-28T07:27:54;5.88;;;3.97;;
47764;SDS011;33529;49.242;8.670;2023-02-28T07:30:22;7.57;;;4.57;;
47764;SDS011;33529;49.242;8.670;2023-02-28T07:32:48;5.55;;;3.50;;
47764;SDS011;33529;49.242;8.670;2023-02-28T07:35:16;6.03;;;4.40;;
47764;SDS011;33529;49.242;8.670;2023-02-28T07:37:42;6.15;;;3.42;;
47764;SDS011;33529;49.242;8.670;2023-02-28T07:40:10;8.00;;;4.40;;
47764;SDS011;33529;49.242;8.670;2023-02-28T07:42:37;7.25;;;3.83;;
47764;SDS011;33529;49.242;8.670;2023-02-28T07:45:08;7.00;;;4.20;;
47764;SDS011;33529;49.242;8.670;2023-02-28T07:47:38;12.07;;;7.40;;
47764;SDS011;33529;49.242;8.670;2023-02-28T07:50:05;7.72;;;4.75;;
47764;SDS011;33529;49.242;8.670;2023-02-28T07:52:33;7.50;;;4.40;;
47764;SDS011;33529;49.242;8.670;2023-02-28T07:55:00;8.65;;;4.72;;
47764;SDS011;33529;49.242;8.670;2023-02-28T07:57:27;7.10;;;3.90;;
47764;SDS011;33529;49.242;8.670;2023-02-28T07:59:54;7.00;;;3.67;;
47764;SDS011;33529;49.242;8.670;2023-02-28T08:02:21;7.05;;;4.35;;
47764;SDS011;33529;49.242;8.670;2023-02-28T08:04:48;6.90;;;4.63;;
47764;SDS011;33529;49.242;8.670;2023-02-28T08:07:15;7.38;;;4.13;;
47764;SDS011;33529;49.242;8.670;2023-02-28T08:09:44;7.57;;;3.97;;
47764;SDS011;33529;49.242;8.670;2023-02-28T08:12:11;6.97;;;4.65;;
47764;SDS011;33529;49.242;8.670;2023-02-28T08:14:38;5.38;;;3.80;;
47764;SDS011;33529;49.242;8.670;2023-02-28T08:17:06;7.15;;;4.40;;
47764;SDS011;33529;49.242;8.670;2023-02-28T08:19:33;7.05;;;4.47;;
47764;SDS011;33529;49.242;8.670;2023-02-28T08:21:59;5.78;;;4.18;;
47764;SDS011;33529;49.242;8.670;2023-02-28T08:24:26;5.35;;;3.88;;
47764;SDS011;33529;49.242;8.670;2023-02-28T08:26:53;8.75;;;4.30;;
47764;SDS011;33529;49.242;8.670;2023-02-28T08:29:20;4.70;;;3.70;;
47764;SDS011;33529;49.242;8.670;2023-02-28T08:31:47;6.78;;;4.47;;
47764;SDS011;33529;49.242;8.670;2023-02-28T08:34:14;7.00;;;4.35;;
47764;SDS011;33529;49.242;8.670;2023-02-28T08:36:42;7.13;;;4.30;;
47764;SDS011;33529;49.242;8.670;2023-02-28T08:39:11;7.88;;;4.57;;
47764;SDS011;33529;49.242;8.670;2023-02-28T08:41:38;6.32;;;4.00;;
47764;SDS011;33529;49.242;8.670;2023-02-28T08:44:05;6.65;;;4.45;;
47764;SDS011;33529;49.242;8.670;2023-02-28T08:46:32;8.68;;;4.20;;
47764;SDS011;33529;49.242;8.670;2023-02-28T08:48:58;7.32;;;4.40;;
47764;SDS011;33529;49.242;8.670;2023-02-28T08:51:27;7.65;;;4.85;;
47764;SDS011;33529;49.242;8.670;2023-02-28T08:53:57;7.80;;;4.20;;
47764;SDS011;33529;49.242;8.670;2023-02-28T08:56:26;5.78;;;4.07;;
47764;SDS011;33529;49.242;8.670;2023-02-28T08:58:54;6.68;;;4.35;;
47764;SDS011;33529;49.242;8.670;2023-02-28T09:01:26;7.30;;;4.50;;
47764;SDS011;33529;49.242;8.670;2023-02-28T09:03:54;9.00;;;4.68;;
47764;SDS011;33529;49.242;8.670;2023-02-28T09:06:27;5.90;;;4.03;;
47764;SDS011;33529;49.242;8.670;2023-02-28T09:08:58;7.22;;;4.22;;
47764;SDS011;33529;49.242;8.670;2023-02-28T09:11:25;7.40;;;4.57;;
47764;SDS011;33529;49.242;8.670;2023-02-28T09:13:52;9.25;;;5.03;;
47764;SDS011;33529;49.242;8.670;2023-02-28T09:16:19;5.32;;;4.03;;
47764;SDS011;33529;49.242;8.670;2023-02-28T09:18:48;6.35;;;4.32;;
47764;SDS011;33529;49.242;8.670;2023-02-28T09:21:16;6.68;;;4.30;;
47764;SDS011;33529;49.242;8.670;2023-02-28T09:23:44;7.35;;;4.85;;
47764;SDS011;33529;49.242;8.670;2023-02-28T09:26:13;8.88;;;4.60;;
47764;SDS011;33529;49.242;8.670;2023-02-28T09:29:12;5.38;;;4.13;;
47764;SDS011;33529;49.242;8.670;2023-02-28T09:31:40;6.22;;;4.03;;
47764;SDS011;33529;49.242;8.670;2023-02-28T09:34:07;8.07;;;5.10;;
47764;SDS011;33529;49.242;8.670;2023-02-28T09:36:34;7.22;;;4.85;;
47764;SDS011;33529;49.242;8.670;2023-02-28T09:39:11;7.07;;;4.45;;
47764;SDS011;33529;49.242;8.670;2023-02-28T09:41:44;6.75;;;4.28;;
47764;SDS011;33529;49.242;8.670;2023-02-28T09:44:39;10.13;;;5.00;;
47764;SDS011;33529;49.242;8.670;2023-02-28T09:47:11;8.07;;;4.90;;
47764;SDS011;33529;49.242;8.670;2023-02-28T09:50:06;8.30;;;5.00;;
47764;SDS011;33529;49.242;8.670;2023-02-28T09:52:49;8.35;;;4.20;;
47764;SDS011;33529;49.242;8.670;2023-02-28T09:55:22;8.30;;;4.30;;
47764;SDS011;33529;49.242;8.670;2023-02-28T09:58:16;7.47;;;4.60;;
47764;SDS011;33529;49.242;8.670;2023-02-28T10:03:39;8.45;;;4.40;;
47764;SDS011;33529;49.242;8.670;2023-02-28T10:06:14;5.55;;;3.67;;
47764;SDS011;33529;49.242;8.670;2023-02-28T10:08:55;7.22;;;4.47;;
47764;SDS011;33529;49.242;8.670;2023-02-28T10:11:27;7.18;;;4.80;;
47764;SDS011;33529;49.242;8.670;2023-02-28T10:14:00;6.47;;;4.30;;
47764;SDS011;33529;49.242;8.670;2023-02-28T10:16:35;6.57;;;3.83;;
47764;SDS011;33529;49.242;8.670;2023-02-28T10:19:28;8.40;;;5.07;;
47764;SDS011;33529;49.242;8.670;2023-02-28T10:22:19;7.82;;;4.80;;
47764;SDS011;33529;49.242;8.670;2023-02-28T10:24:51;6.47;;;4.25;;
47764;SDS011;33529;49.242;8.670;2023-02-28T10:29:50;5.88;;;4.20;;
47764;SDS011;33529;49.242;8.670;2023-02-28T10:32:20;7.25;;;4.20;;
47764;SDS011;33529;49.242;8.670;2023-02-28T10:37:20;7.53;;;5.18;;
47764;SDS011;33529;49.242;8.670;2023-02-28T10:39:47;8.68;;;4.80;;
47764;SDS011;33529;49.242;8.670;2023-02-28T10:45:07;7.60;;;4.25;;
47764;SDS011;33529;49.242;8.670;2023-02-28T10:48:04;9.18;;;4.38;;
47764;SDS011;33529;49.242;8.670;2023-02-28T10:53:34;8.05;;;4.32;;
47764;SDS011;33529;49.242;8.670;2023-02-28T11:01:41;9.20;;;5.50;;
47764;SDS011;33529;49.242;8.670;2023-02-28T11:09:37;5.78;;;4.60;;
47764;SDS011;33529;49.242;8.670;2023-02-28T11:12:07;7.38;;;4.40;;
47764;SDS011;33529;49.242;8.670;2023-02-28T11:14:47;7.07;;;4.65;;
47764;SDS011;33529;49.242;8.670;2023-02-28T11:17:24;8.52;;;4.82;;
47764;SDS011;33529;49.242;8.670;2023-02-28T11:19:57;7.25;;;4.30;;
47764;SDS011;33529;49.242;8.670;2023-02-28T11:22:37;7.22;;;4.68;;
47764;SDS011;33529;49.242;8.670;2023-02-28T11:25:13;7.75;;;4.70;;
47764;SDS011;33529;49.242;8.670;2023-02-28T11:27:50;7.80;;;4.95;;
47764;SDS011;33529;49.242;8.670;2023-02-28T11:38:09;5.97;;;4.22;;
47764;SDS011;33529;49.242;8.670;2023-02-28T11:40:43;7.80;;;4.60;;
47764;SDS011;33529;49.242;8.670;2023-02-28T11:43:22;8.20;;;4.07;;
47764;SDS011;33529;49.242;8.670;2023-02-28T11:46:17;6.90;;;4.75;;
47764;SDS011;33529;49.242;8.670;2023-02-28T11:49:22;6.63;;;4.50;;
47764;SDS011;33529;49.242;8.670;2023-02-28T11:51:53;8.80;;;4.75;;
47764;SDS011;33529;49.242;8.670;2023-02-28T11:54:48;6.97;;;5.38;;
47764;SDS011;33529;49.242;8.670;2023-02-28T12:05:24;9.38;;;4.70;;
47764;SDS011;33529;49.242;8.670;2023-02-28T12:14:26;8.55;;;5.55;;
47764;SDS011;33529;49.242;8.670;2023-02-28T12:17:16;8.32;;;4.70;;
47764;SDS011;33529;49.242;8.670;2023-02-28T12:23:36;6.97;;;5.05;;
47764;SDS011;33529;49.242;8.670;2023-02-28T12:28:04;7.45;;;4.32;;
47764;SDS011;33529;49.242;8.670;2023-02-28T12:30:35;9.13;;;4.97;;
47764;SDS011;33529;49.242;8.670;2023-02-28T12:35:41;9.75;;;5.60;;
47764;SDS011;33529;49.242;8.670;2023-02-28T12:38:41;8.38;;;5.07;;
47764;SDS011;33529;49.242;8.670;2023-02-28T12:41:16;7.32;;;4.93;;
47764;SDS011;33529;49.242;8.670;2023-02-28T12:43:48;10.25;;;6.63;;
47764;SDS011;33529;49.242;8.670;2023-02-28T12:46:23;7.60;;;4.97;;
47764;SDS011;33529;49.242;8.670;2023-02-28T12:48:55;8.57;;;4.97;;
47764;SDS011;33529;49.242;8.670;2023-02-28T12:51:23;11.00;;;5.57;;
47764;SDS011;33529;49.242;8.670;2023-02-28T12:56:51;7.97;;;5.25;;
47764;SDS011;33529;49.242;8.670;2023-02-28T12:59:37;7.80;;;5.47;;
47764;SDS011;33529;49.242;8.670;2023-02-28T13:10:45;7.55;;;5.38;;
47764;SDS011;33529;49.242;8.670;2023-02-28T13:13:17;8.15;;;5.07;;
47764;SDS011;33529;49.242;8.670;2023-02-28T13:16:02;8.00;;;4.82;;
47764;SDS011;33529;49.242;8.670;2023-02-28T13:21:08;7.63;;;5.30;;
47764;SDS011;33529;49.242;8.670;2023-02-28T13:26:22;8.38;;;5.28;;
47764;SDS011;33529;49.242;8.670;2023-02-28T13:34:38;8.63;;;5.55;;
47764;SDS011;33529;49.242;8.670;2023-02-28T13:42:33;8.55;;;5.38;;
47764;SDS011;33529;49.242;8.670;2023-02-28T13:58:27;10.35;;;6.50;;
47764;SDS011;33529;49.242;8.670;2023-02-28T14:01:02;8.52;;;5.43;;
47764;SDS011;33529;49.242;8.670;2023-02-28T14:11:43;7.60;;;5.82;;
47764;SDS011;33529;49.242;8.670;2023-02-28T14:14:53;8.90;;;5.45;;
47764;SDS011;33529;49.242;8.670;2023-02-28T14:17:03;8.82;;;5.35;;
47764;SDS011;33529;49.242;8.670;2023-02-28T14:19:39;7.78;;;5.15;;
47764;SDS011;33529;49.242;8.670;2023-02-28T14:22:16;8.27;;;5.10;;
47764;SDS011;33529;49.242;8.670;2023-02-28T14:25:09;7.85;;;5.68;;
47764;SDS011;33529;49.242;8.670;2023-02-28T14:28:26;6.60;;;5.10;;
47764;SDS011;33529;49.242;8.670;2023-02-28T14:30:52;7.10;;;5.47;;
47764;SDS011;33529;49.242;8.670;2023-02-28T14:33:46;7.78;;;5.00;;
47764;SDS011;33529;49.242;8.670;2023-02-28T14:36:36;10.35;;;6.07;;
47764;SDS011;33529;49.242;8.670;2023-02-28T14:39:22;7.03;;;5.20;;
47764;SDS011;33529;49.242;8.670;2023-02-28T14:41:51;9.55;;;5.53;;
47764;SDS011;33529;49.242;8.670;2023-02-28T14:44:22;10.32;;;5.65;;
47764;SDS011;33529;49.242;8.670;2023-02-28T14:46:55;9.50;;;5.28;;
47764;SDS011;33529;49.242;8.670;2023-02-28T14:49:37;9.15;;;5.47;;
47764;SDS011;33529;49.242;8.670;2023-02-28T14:52:14;7.57;;;5.85;;
47764;SDS011;33529;49.242;8.670;2023-02-28T14:54:45;7.00;;;4.90;;
47764;SDS011;33529;49.242;8.670;2023-02-28T14:57:24;8.35;;;5.28;;
47764;SDS011;33529;49.242;8.670;2023-02-28T15:02:48;8.25;;;5.68;;
47764;SDS011;33529;49.242;8.670;2023-02-28T15:05:20;7.25;;;5.22;;
47764;SDS011;33529;49.242;8.670;2023-02-28T15:08:00;9.05;;;5.85;;
47764;SDS011;33529;49.242;8.670;2023-02-28T15:10:30;8.77;;;5.32;;
47764;SDS011;33529;49.242;8.670;2023-02-28T15:12:58;10.68;;;5.65;;
47764;SDS011;33529;49.242;8.670;2023-02-28T15:15:40;9.43;;;5.93;;
47764;SDS011;33529;49.242;8.670;2023-02-28T15:21:20;8.63;;;5.72;;
47764;SDS011;33529;49.242;8.670;2023-02-28T15:23:50;8.70;;;5.78;;
47764;SDS011;33529;49.242;8.670;2023-02-28T15:26:19;8.18;;;5.43;;
47764;SDS011;33529;49.242;8.670;2023-02-28T15:28:54;9.80;;;5.90;;
47764;SDS011;33529;49.242;8.670;2023-02-28T15:31:27;8.93;;;6.45;;
47764;SDS011;33529;49.242;8.670;2023-02-28T15:34:18;8.52;;;5.15;;
47764;SDS011;33529;49.242;8.670;2023-02-28T15:36:49;8.55;;;5.78;;
47764;SDS011;33529;49.242;8.670;2023-02-28T15:39:18;8.95;;;5.78;;
47764;SDS011;33529;49.242;8.670;2023-02-28T15:41:47;8.40;;;5.05;;
47764;SDS011;33529;49.242;8.670;2023-02-28T15:44:22;9.88;;;5.32;;
47764;SDS011;33529;49.242;8.670;2023-02-28T15:47:05;8.80;;;6.00;;
47764;SDS011;33529;49.242;8.670;2023-02-28T15:49:45;6.50;;;4.88;;
47764;SDS011;33529;49.242;8.670;2023-02-28T15:52:19;9.57;;;5.90;;
47764;SDS011;33529;49.242;8.670;2023-02-28T15:54:48;10.75;;;5.32;;
47764;SDS011;33529;49.242;8.670;2023-02-28T15:57:20;9.70;;;5.97;;
47764;SDS011;33529;49.242;8.670;2023-02-28T15:59:51;8.60;;;5.57;;
47764;SDS011;33529;49.242;8.670;2023-02-28T16:02:25;8.95;;;5.30;;
47764;SDS011;33529;49.242;8.670;2023-02-28T16:05:02;8.88;;;5.43;;
47764;SDS011;33529;49.242;8.670;2023-02-28T16:07:46;9.77;;;5.88;;
47764;SDS011;33529;49.242;8.670;2023-02-28T16:10:17;8.07;;;5.60;;
47764;SDS011;33529;49.242;8.670;2023-02-28T16:12:44;9.15;;;6.60;;
47764;SDS011;33529;49.242;8.670;2023-02-28T16:15:21;8.43;;;5.78;;
47764;SDS011;33529;49.242;8.670;2023-02-28T16:17:55;10.88;;;5.65;;
47764;SDS011;33529;49.242;8.670;2023-02-28T16:20:29;9.23;;;5.40;;
47764;SDS011;33529;49.242;8.670;2023-02-28T16:22:57;9.25;;;5.72;;
47764;SDS011;33529;49.242;8.670;2023-02-28T16:25:34;9.57;;;5.28;;
47764;SDS011;33529;49.242;8.670;2023-02-28T16:28:12;9.07;;;5.40;;
47764;SDS011;33529;49.242;8.670;2023-02-28T16:30:42;9.43;;;5.93;;
47764;SDS011;33529;49.242;8.670;2023-02-28T16:33:09;7.82;;;4.93;;
47764;SDS011;33529;49.242;8.670;2023-02-28T16:35:36;10.43;;;6.18;;
47764;SDS011;33529;49.242;8.670;2023-02-28T16:38:02;6.90;;;4.90;;
47764;SDS011;33529;49.242;8.670;2023-02-28T16:40:29;10.93;;;6.40;;
47764;SDS011;33529;49.242;8.670;2023-02-28T16:43:00;8.85;;;5.70;;
47764;SDS011;33529;49.242;8.670;2023-02-28T16:47:58;9.15;;;6.15;;
47764;SDS011;33529;49.242;8.670;2023-02-28T16:50:27;7.90;;;5.75;;
47764;SDS011;33529;49.242;8.670;2023-02-28T16:52:55;11.73;;;5.72;;
47764;SDS011;33529;49.242;8.670;2023-02-28T16:55:23;9.07;;;6.05;;
47764;SDS011;33529;49.242;8.670;2023-02-28T16:57:51;10.25;;;6.53;;
47764;SDS011;33529;49.242;8.670;2023-02-28T17:00:21;9.00;;;5.65;;
47764;SDS011;33529;49.242;8.670;2023-02-28T17:02:48;12.90;;;7.93;;
47764;SDS011;33529;49.242;8.670;2023-02-28T17:05:16;9.70;;;6.65;;
47764;SDS011;33529;49.242;8.670;2023-02-28T17:07:45;13.48;;;7.00;;
47764;SDS011;33529;49.242;8.670;2023-02-28T17:12:52;8.65;;;6.47;;
47764;SDS011;33529;49.242;8.670;2023-02-28T17:15:28;10.68;;;6.57;;
47764;SDS011;33529;49.242;8.670;2023-02-28T17:17:55;10.85;;;6.40;;
47764;SDS011;33529;49.242;8.670;2023-02-28T17:20:23;10.48;;;6.53;;
47764;SDS011;33529;49.242;8.670;2023-02-28T17:22:50;12.65;;;7.28;;
47764;SDS011;33529;49.242;8.670;2023-02-28T17:25:18;13.52;;;7.78;;
47764;SDS011;33529;49.242;8.670;2023-02-28T17:27:45;11.52;;;7.18;;
47764;SDS011;33529;49.242;8.670;2023-02-28T17:30:16;19.00;;;10.15;;
47764;SDS011;33529;49.242;8.670;2023-02-28T17:32:44;23.10;;;10.43;;
47764;SDS011;33529;49.242;8.670;2023-02-28T17:35:12;15.52;;;8.07;;
47764;SDS011;33529;49.242;8.670;2023-02-28T17:37:39;15.75;;;8.95;;
47764;SDS011;33529;49.242;8.670;2023-02-28T17:40:06;20.90;;;11.48;;
47764;SDS011;33529;49.242;8.670;2023-02-28T17:42:43;15.68;;;8.02;;
47764;SDS011;33529;49.242;8.670;2023-02-28T17:45:10;23.73;;;11.60;;
47764;SDS011;33529;49.242;8.670;2023-02-28T17:47:38;17.42;;;8.73;;